createdAt,value
2023-06-12T00:02:11.079Z,3.10
2023-06-12T00:04:39.063Z,3.50
2023-06-12T00:07:07.706Z,3.42
2023-06-12T00:09:37.057Z,3.60
2023-06-12T00:12:05.776Z,3.53
2023-06-12T00:14:33.785Z,3.83
2023-06-12T00:17:01.827Z,3.20
2023-06-12T00:19:29.865Z,3.25
2023-06-12T00:21:57.963Z,2.92
2023-06-12T00:24:26.120Z,2.53
2023-06-12T00:26:55.466Z,2.47
2023-06-12T00:29:23.472Z,2.63
2023-06-12T00:31:51.689Z,2.70
2023-06-12T00:34:19.609Z,2.70
2023-06-12T00:36:48.591Z,3.30
2023-06-12T00:39:16.512Z,2.75
2023-06-12T00:41:44.440Z,2.60
2023-06-12T00:44:13.690Z,3.35
2023-06-12T00:46:41.891Z,2.38
2023-06-12T00:49:10.012Z,2.83
2023-06-12T00:51:38.002Z,2.97
2023-06-12T00:54:06.071Z,2.42
2023-06-12T00:56:34.171Z,2.70
2023-06-12T00:59:02.152Z,2.78
2023-06-12T01:01:31.599Z,2.80
2023-06-12T01:04:00.060Z,2.35
2023-06-12T01:06:35.606Z,2.97
2023-06-12T01:09:11.825Z,2.85
2023-06-12T01:11:41.344Z,2.95
2023-06-12T01:14:09.721Z,2.53
2023-06-12T01:16:42.097Z,2.70
2023-06-12T01:19:10.962Z,2.65
2023-06-12T01:21:41.420Z,2.42
2023-06-12T01:24:31.357Z,2.35
2023-06-12T01:27:16.646Z,2.63
2023-06-12T01:30:21.756Z,3.08
2023-06-12T01:32:52.385Z,2.90
2023-06-12T01:35:25.403Z,2.58
2023-06-12T01:37:57.482Z,2.95
2023-06-12T01:40:30.085Z,2.77
2023-06-12T01:42:58.311Z,2.20
2023-06-12T01:45:26.996Z,2.47
2023-06-12T01:47:56.698Z,2.45
2023-06-12T01:50:24.761Z,2.85
2023-06-12T01:52:52.652Z,2.30
2023-06-12T01:55:22.647Z,2.78
2023-06-12T01:57:51.251Z,2.65
2023-06-12T02:00:19.967Z,2.42
2023-06-12T02:02:48.437Z,3.13
2023-06-12T02:05:17.766Z,2.40
2023-06-12T02:07:45.687Z,2.28
2023-06-12T02:10:14.146Z,2.73
2023-06-12T02:12:44.707Z,2.40
2023-06-12T02:15:13.981Z,2.70
2023-06-12T02:17:42.683Z,2.50
2023-06-12T02:20:11.347Z,2.67
2023-06-12T02:22:40.877Z,2.33
2023-06-12T02:25:09.452Z,2.23
2023-06-12T02:27:37.437Z,2.40
2023-06-12T02:30:06.209Z,2.35
2023-06-12T02:32:36.722Z,2.67
2023-06-12T02:35:12.004Z,2.23
2023-06-12T02:37:41.374Z,2.70
2023-06-12T02:40:10.712Z,2.70
2023-06-12T02:42:38.929Z,2.10
2023-06-12T02:45:08.030Z,2.40
2023-06-12T02:47:36.162Z,2.28
2023-06-12T02:50:04.220Z,2.43
2023-06-12T02:52:32.529Z,2.60
2023-06-12T02:55:01.807Z,2.70
2023-06-12T02:57:29.825Z,2.92
2023-06-12T02:59:57.799Z,3.10
2023-06-12T03:02:25.876Z,2.80
2023-06-12T03:04:55.143Z,3.05
2023-06-12T03:07:23.142Z,2.65
2023-06-12T03:09:51.146Z,2.90
2023-06-12T03:12:20.507Z,2.80
2023-06-12T03:14:49.234Z,3.00
2023-06-12T03:17:17.262Z,3.23
2023-06-12T03:19:46.158Z,2.73
2023-06-12T03:22:14.136Z,3.10
2023-06-12T03:24:42.116Z,3.17
2023-06-12T03:27:10.916Z,3.50
2023-06-12T03:29:40.383Z,3.30
2023-06-12T03:32:09.727Z,3.22
2023-06-12T03:34:37.698Z,3.70
2023-06-12T03:37:06.154Z,3.70
2023-06-12T03:39:34.261Z,3.53
2023-06-12T03:42:02.351Z,3.60
2023-06-12T03:44:30.390Z,3.47
2023-06-12T03:47:00.020Z,3.45
2023-06-12T03:49:28.277Z,3.60
2023-06-12T03:51:56.744Z,3.07
2023-06-12T03:54:24.727Z,3.00
2023-06-12T03:56:52.711Z,3.17
2023-06-12T03:59:20.870Z,3.20
2023-06-12T04:01:49.878Z,3.60
2023-06-12T04:04:19.524Z,3.40
2023-06-12T04:06:48.123Z,3.20
2023-06-12T04:09:17.104Z,2.80
2023-06-12T04:11:45.165Z,3.03
2023-06-12T04:14:13.122Z,3.17
2023-06-12T04:16:41.219Z,3.20
2023-06-12T04:19:10.065Z,2.50
2023-06-12T04:21:39.423Z,3.47
2023-06-12T04:24:17.004Z,3.10
2023-06-12T04:26:47.603Z,2.80
2023-06-12T04:29:16.506Z,2.80
2023-06-12T04:31:45.173Z,2.70
2023-06-12T04:34:17.460Z,2.93
2023-06-12T04:36:47.037Z,2.55
2023-06-12T04:39:15.473Z,2.40
2023-06-12T04:41:43.697Z,2.57
2023-06-12T04:44:12.490Z,2.70
2023-06-12T04:46:40.844Z,2.40
2023-06-12T04:49:10.191Z,2.55
2023-06-12T04:51:39.884Z,2.28
2023-06-12T04:54:11.084Z,2.70
2023-06-12T04:56:41.645Z,2.60
2023-06-12T04:59:12.001Z,2.40
2023-06-12T05:01:40.612Z,2.00
2023-06-12T05:04:09.206Z,2.97
2023-06-12T05:06:40.518Z,2.65
2023-06-12T05:09:09.899Z,2.60
2023-06-12T05:11:37.942Z,3.22
2023-06-12T05:14:05.838Z,2.30
2023-06-12T05:16:33.956Z,2.20
2023-06-12T05:19:02.026Z,2.60
2023-06-12T05:21:30.009Z,2.75
2023-06-12T05:23:58.001Z,2.90
2023-06-12T05:26:28.413Z,2.22
2023-06-12T05:28:56.455Z,2.28
2023-06-12T05:31:24.652Z,2.13
2023-06-12T05:33:52.744Z,2.80
2023-06-12T05:36:21.124Z,2.10
2023-06-12T05:38:49.652Z,2.75
2023-06-12T05:41:18.104Z,2.17
2023-06-12T05:43:48.258Z,2.30
2023-06-12T05:46:16.690Z,2.85
2023-06-12T05:48:44.793Z,3.25
2023-06-12T05:51:12.896Z,2.42
2023-06-12T05:53:40.971Z,2.08
2023-06-12T05:56:10.948Z,2.15
2023-06-12T05:58:39.198Z,2.40
2023-06-12T06:01:10.494Z,2.53
2023-06-12T06:03:43.868Z,2.80
2023-06-12T06:06:14.259Z,2.03
2023-06-12T06:08:42.432Z,2.33
2023-06-12T06:11:10.868Z,2.35
2023-06-12T06:13:38.902Z,2.65
2023-06-12T06:16:10.670Z,2.30
2023-06-12T06:18:39.158Z,2.17
2023-06-12T06:21:07.352Z,2.13
2023-06-12T06:23:36.446Z,2.33
2023-06-12T06:26:04.775Z,2.60
2023-06-12T06:28:32.734Z,1.88
2023-06-12T06:31:01.601Z,2.00
2023-06-12T06:33:30.886Z,2.17
2023-06-12T06:35:58.960Z,2.25
2023-06-12T06:38:27.307Z,2.10
2023-06-12T06:40:55.579Z,1.92
2023-06-12T06:43:24.081Z,1.80
2023-06-12T06:45:52.298Z,1.63
2023-06-12T06:48:20.281Z,1.80
2023-06-12T06:50:49.763Z,1.80
2023-06-12T06:53:17.840Z,2.13
2023-06-12T06:55:46.137Z,1.95
2023-06-12T06:58:14.249Z,1.42
2023-06-12T07:00:42.222Z,1.42
2023-06-12T07:03:11.132Z,1.63
2023-06-12T07:05:39.375Z,1.50
2023-06-12T07:08:09.632Z,1.88
2023-06-12T07:10:38.317Z,1.45
2023-06-12T07:13:06.268Z,1.55
2023-06-12T07:15:34.754Z,1.20
2023-06-12T07:18:02.995Z,1.40
2023-06-12T07:20:31.040Z,1.23
2023-06-12T07:22:59.017Z,1.40
2023-06-12T07:25:28.844Z,1.33
2023-06-12T07:27:56.811Z,1.00
2023-06-12T07:30:24.976Z,1.02
2023-06-12T07:32:53.077Z,1.15
2023-06-12T07:35:21.340Z,0.98
2023-06-12T07:37:51.386Z,1.42
2023-06-12T07:40:19.533Z,1.13
2023-06-12T07:42:49.840Z,1.38
2023-06-12T07:45:17.859Z,1.38
2023-06-12T07:47:47.369Z,1.20
2023-06-12T07:50:15.471Z,1.38
2023-06-12T07:52:43.660Z,1.20
2023-06-12T07:55:12.128Z,1.33
2023-06-12T07:57:40.327Z,1.00
2023-06-12T08:00:11.317Z,1.45
2023-06-12T08:02:40.288Z,1.48
2023-06-12T08:05:09.413Z,0.98
2023-06-12T08:07:37.695Z,1.45
2023-06-12T08:10:08.763Z,1.30
2023-06-12T08:12:37.000Z,1.25
2023-06-12T08:15:05.670Z,1.10
2023-06-12T08:17:36.469Z,1.30
2023-06-12T08:20:06.684Z,1.50
2023-06-12T08:22:34.613Z,1.40
2023-06-12T08:25:02.692Z,1.38
2023-06-12T08:27:30.610Z,1.33
2023-06-12T08:29:58.622Z,1.58
2023-06-12T08:32:26.581Z,1.10
2023-06-12T08:34:57.108Z,1.27
2023-06-12T08:37:25.137Z,1.25
2023-06-12T08:39:53.194Z,1.40
2023-06-12T08:42:22.846Z,1.17
2023-06-12T08:44:57.155Z,1.30
2023-06-12T08:47:36.288Z,1.13
2023-06-12T08:50:07.259Z,1.35
2023-06-12T08:52:35.884Z,1.20
2023-06-12T08:55:05.151Z,1.30
2023-06-12T08:57:33.342Z,1.35
2023-06-12T09:00:01.298Z,1.48
2023-06-12T09:02:30.757Z,1.10
2023-06-12T09:05:03.924Z,1.30
2023-06-12T09:07:38.760Z,1.60
2023-06-12T09:10:14.439Z,1.38
2023-06-12T09:12:44.832Z,1.13
2023-06-12T09:15:18.865Z,1.40
2023-06-12T09:17:49.259Z,1.35
2023-06-12T09:20:28.840Z,1.20
2023-06-12T09:23:06.581Z,1.42
2023-06-12T09:25:38.974Z,1.65
2023-06-12T09:28:08.509Z,1.38
2023-06-12T09:30:40.930Z,2.00
2023-06-12T09:33:09.844Z,1.40
2023-06-12T09:35:51.588Z,1.38
2023-06-12T09:38:29.781Z,1.40
2023-06-12T09:40:59.110Z,1.27
2023-06-12T09:43:29.859Z,1.35
2023-06-12T09:45:58.813Z,1.25
2023-06-12T09:48:33.905Z,1.42
2023-06-12T09:51:07.136Z,1.50
2023-06-12T09:53:41.245Z,1.42
2023-06-12T09:56:10.974Z,1.27
2023-06-12T09:58:40.773Z,1.63
2023-06-12T10:01:09.834Z,1.30
2023-06-12T10:03:40.896Z,1.65
2023-06-12T10:06:10.684Z,1.25
2023-06-12T10:08:41.626Z,1.27
2023-06-12T10:11:10.574Z,1.30
2023-06-12T10:13:39.436Z,1.27
2023-06-12T10:16:08.984Z,1.30
2023-06-12T10:18:37.354Z,1.67
2023-06-12T10:21:08.777Z,1.60
2023-06-12T10:23:39.837Z,1.42
2023-06-12T10:26:08.463Z,1.35
2023-06-12T10:28:37.196Z,1.23
2023-06-12T10:31:15.392Z,1.40
2023-06-12T10:34:09.078Z,1.00
2023-06-12T10:36:43.114Z,1.27
2023-06-12T10:39:25.516Z,1.40
2023-06-12T10:41:55.833Z,1.48
2023-06-12T10:44:37.708Z,1.30
2023-06-12T10:47:07.060Z,1.90
2023-06-12T10:49:59.724Z,1.40
2023-06-12T10:52:28.498Z,1.50
2023-06-12T10:55:32.429Z,1.10
2023-06-12T10:58:01.835Z,1.58
2023-06-12T11:00:33.089Z,1.38
2023-06-12T11:03:02.740Z,1.23
2023-06-12T11:05:32.323Z,1.40
2023-06-12T11:08:02.105Z,1.30
2023-06-12T11:10:32.837Z,1.20
2023-06-12T11:13:01.612Z,1.33
2023-06-12T11:15:30.299Z,1.77
2023-06-12T11:17:58.304Z,1.50
2023-06-12T11:20:26.463Z,1.38
2023-06-12T11:23:02.089Z,1.50
2023-06-12T11:25:34.286Z,1.40
2023-06-12T11:28:03.928Z,1.45
2023-06-12T11:30:34.140Z,1.38
2023-06-12T11:33:08.739Z,1.55
2023-06-12T11:35:41.799Z,1.50
2023-06-12T11:40:43.428Z,1.60
2023-06-12T11:43:11.818Z,1.50
2023-06-12T11:45:43.139Z,1.80
2023-06-12T11:50:47.729Z,1.60
2023-06-12T11:53:17.161Z,2.00
2023-06-12T11:58:22.544Z,2.05
2023-06-12T12:00:53.099Z,2.13
2023-06-12T12:03:22.572Z,1.90
2023-06-12T12:05:52.810Z,2.20
2023-06-12T12:08:27.154Z,2.17
2023-06-12T12:10:56.813Z,2.38
2023-06-12T12:13:24.960Z,2.20
2023-06-12T12:15:53.016Z,2.33
2023-06-12T12:18:21.886Z,2.40
2023-06-12T12:20:51.005Z,2.25
2023-06-12T12:23:19.626Z,3.03
2023-06-12T12:25:50.090Z,2.97
2023-06-12T12:28:19.730Z,3.25
2023-06-12T12:30:47.819Z,3.10
2023-06-12T12:33:16.268Z,2.75
2023-06-12T12:35:44.530Z,2.60
2023-06-12T12:38:12.606Z,3.38
2023-06-12T12:40:40.733Z,2.42
2023-06-12T12:43:08.831Z,2.47
2023-06-12T12:45:38.275Z,2.05
2023-06-12T12:48:07.047Z,1.95
2023-06-12T12:50:41.703Z,1.90
2023-06-12T12:53:16.440Z,2.40
2023-06-12T12:55:44.709Z,2.28
2023-06-12T12:58:18.291Z,2.33
2023-06-12T13:00:50.758Z,2.15
2023-06-12T13:03:19.104Z,2.67
2023-06-12T13:05:47.496Z,3.30
2023-06-12T13:08:15.700Z,2.10
2023-06-12T13:10:44.453Z,1.77
2023-06-12T13:13:15.453Z,2.00
2023-06-12T13:15:44.101Z,1.92
2023-06-12T13:18:13.777Z,1.50
2023-06-12T13:20:41.814Z,1.45
2023-06-12T13:23:10.031Z,1.83
2023-06-12T13:25:39.800Z,1.60
2023-06-12T13:28:07.878Z,1.77
2023-06-12T13:30:36.018Z,1.98
2023-06-12T13:33:04.659Z,1.73
2023-06-12T13:35:36.052Z,1.98
2023-06-12T13:38:06.737Z,2.25
2023-06-12T13:40:34.836Z,1.95
2023-06-12T13:43:03.284Z,2.08
2023-06-12T13:45:33.214Z,2.15
2023-06-12T13:48:03.985Z,2.13
2023-06-12T13:50:33.688Z,2.22
2023-06-12T13:53:01.738Z,1.33
2023-06-12T13:55:29.726Z,1.65
2023-06-12T13:57:57.937Z,1.55
2023-06-12T14:00:27.897Z,1.50
2023-06-12T14:02:56.130Z,1.73
2023-06-12T14:05:24.261Z,1.55
2023-06-12T14:07:53.876Z,2.05
2023-06-12T14:10:22.528Z,1.52
2023-06-12T14:12:50.977Z,1.90
2023-06-12T14:15:20.990Z,1.80
2023-06-12T14:17:49.270Z,1.33
2023-06-12T14:20:17.912Z,1.90
2023-06-12T14:22:46.350Z,1.67
2023-06-12T14:25:16.136Z,1.95
2023-06-12T14:27:44.396Z,1.60
2023-06-12T14:30:15.001Z,1.52
2023-06-12T14:32:43.110Z,1.83
2023-06-12T14:35:11.438Z,2.00
2023-06-12T14:37:39.653Z,2.15
2023-06-12T14:40:09.416Z,1.80
2023-06-12T14:42:39.431Z,1.95
2023-06-12T14:45:09.367Z,1.90
2023-06-12T14:47:37.391Z,1.88
2023-06-12T14:50:06.325Z,1.70
2023-06-12T14:52:34.683Z,1.60
2023-06-12T14:55:03.538Z,1.50
2023-06-12T14:57:31.622Z,1.70
2023-06-12T15:00:00.911Z,1.60
2023-06-12T15:02:28.878Z,1.60
2023-06-12T15:04:57.095Z,1.70
2023-06-12T15:07:25.413Z,1.70
2023-06-12T15:09:53.406Z,2.03
2023-06-12T15:12:21.450Z,1.65
2023-06-12T15:14:49.644Z,1.45
2023-06-12T15:17:19.318Z,1.65
2023-06-12T15:19:47.751Z,1.90
2023-06-12T15:22:15.859Z,2.03
2023-06-12T15:24:43.961Z,1.77
2023-06-12T15:27:12.349Z,1.63
2023-06-12T15:29:40.720Z,1.90
2023-06-12T15:32:09.564Z,1.63
2023-06-12T15:34:38.953Z,1.70
2023-06-12T15:37:07.068Z,1.80
2023-06-12T15:39:34.995Z,1.50
2023-06-12T15:42:05.352Z,1.90
2023-06-12T15:44:34.150Z,1.65
2023-06-12T15:47:02.302Z,1.80
2023-06-12T15:49:30.586Z,2.33
2023-06-12T15:52:00.205Z,1.60
2023-06-12T15:54:28.741Z,2.00
2023-06-12T15:56:56.925Z,1.88
2023-06-12T15:59:25.174Z,1.80
2023-06-12T16:01:59.609Z,2.00
2023-06-12T16:04:28.498Z,1.70
2023-06-12T16:06:56.911Z,2.00
2023-06-12T16:09:26.601Z,1.67
2023-06-12T16:11:54.626Z,1.83
2023-06-12T16:14:22.655Z,1.80
2023-06-12T16:16:51.035Z,2.22
2023-06-12T16:19:19.291Z,1.50
2023-06-12T16:21:47.684Z,1.80
2023-06-12T16:24:15.873Z,1.70
2023-06-12T16:26:45.491Z,1.75
2023-06-12T16:29:13.564Z,1.75
2023-06-12T16:31:41.943Z,1.67
2023-06-12T16:34:10.072Z,2.30
2023-06-12T16:36:38.287Z,2.08
2023-06-12T16:39:06.545Z,2.35
2023-06-12T16:41:35.461Z,2.28
2023-06-12T16:44:04.985Z,1.77
2023-06-12T16:46:33.035Z,2.25
2023-06-12T16:49:01.197Z,2.35
2023-06-12T16:51:30.923Z,2.08
2023-06-12T16:54:00.147Z,2.05
2023-06-12T16:56:28.729Z,1.45
2023-06-12T16:58:57.185Z,1.80
2023-06-12T17:01:26.623Z,1.65
2023-06-12T17:03:54.979Z,1.85
2023-06-12T17:06:24.106Z,1.83
2023-06-12T17:08:52.238Z,1.70
2023-06-12T17:11:20.844Z,1.60
2023-06-12T17:13:48.908Z,1.90
2023-06-12T17:16:16.982Z,1.33
2023-06-12T17:18:47.832Z,1.48
2023-06-12T17:21:16.579Z,1.75
2023-06-12T17:23:44.685Z,1.75
2023-06-12T17:26:13.347Z,2.10
2023-06-12T17:28:41.409Z,1.20
2023-06-12T17:31:11.608Z,1.20
2023-06-12T17:33:41.056Z,1.08
2023-06-12T17:36:10.603Z,1.42
2023-06-12T17:38:38.553Z,1.42
2023-06-12T17:41:06.640Z,1.20
2023-06-12T17:43:34.698Z,1.23
2023-06-12T17:46:03.485Z,1.45
2023-06-12T17:48:31.982Z,1.73
2023-06-12T17:51:02.668Z,1.42
2023-06-12T17:53:32.199Z,1.20
2023-06-12T17:56:00.298Z,1.02
2023-06-12T17:58:28.278Z,1.30
2023-06-12T18:00:57.181Z,1.58
2023-06-12T18:03:25.229Z,1.50
2023-06-12T18:05:53.231Z,1.27
2023-06-12T18:08:21.280Z,1.30
2023-06-12T18:10:50.912Z,1.45
2023-06-12T18:13:19.365Z,1.38
2023-06-12T18:15:47.582Z,1.63
2023-06-12T18:18:18.131Z,1.25
2023-06-12T18:20:46.242Z,1.23
2023-06-12T18:23:14.274Z,1.27
2023-06-12T18:25:42.210Z,1.70
2023-06-12T18:28:11.760Z,1.70
2023-06-12T18:30:39.917Z,1.13
2023-06-12T18:33:07.857Z,1.47
2023-06-12T18:35:36.930Z,1.70
2023-06-12T18:38:05.526Z,1.20
2023-06-12T18:40:33.969Z,1.50
2023-06-12T18:43:02.132Z,1.20
2023-06-12T18:45:31.500Z,1.55
2023-06-12T18:47:59.646Z,1.23
2023-06-12T18:50:27.810Z,1.57
2023-06-12T18:52:56.094Z,1.88
2023-06-12T18:55:24.075Z,1.27
2023-06-12T18:57:52.129Z,1.40
2023-06-12T19:00:21.357Z,1.38
2023-06-12T19:02:54.070Z,1.25
2023-06-12T19:05:22.588Z,1.53
2023-06-12T19:07:50.865Z,1.60
2023-06-12T19:10:18.994Z,1.63
2023-06-12T19:12:46.955Z,1.40
2023-06-12T19:15:15.309Z,1.33
2023-06-12T19:17:43.661Z,1.70
2023-06-12T19:20:14.460Z,1.50
2023-06-12T19:22:46.419Z,1.20
2023-06-12T19:25:14.672Z,1.30
2023-06-12T19:27:42.890Z,1.60
2023-06-12T19:30:11.721Z,1.57
2023-06-12T19:32:44.611Z,1.20
2023-06-12T19:35:15.337Z,1.50
2023-06-12T19:37:44.326Z,1.60
2023-06-12T19:40:13.358Z,1.47
2023-06-12T19:42:41.424Z,1.40
2023-06-12T19:45:10.341Z,1.70
2023-06-12T19:47:38.538Z,1.60
2023-06-12T19:50:07.908Z,1.57
2023-06-12T19:52:39.255Z,1.60
2023-06-12T19:55:10.135Z,1.50
2023-06-12T19:57:38.384Z,1.30
2023-06-12T20:00:07.509Z,1.50
2023-06-12T20:02:35.755Z,1.60
2023-06-12T20:05:04.200Z,1.83
2023-06-12T20:07:32.207Z,1.50
2023-06-12T20:10:04.531Z,1.50
2023-06-12T20:12:33.445Z,1.70
2023-06-12T20:15:02.789Z,1.53
2023-06-12T20:17:31.207Z,1.63
2023-06-12T20:19:59.593Z,1.50
2023-06-12T20:22:27.830Z,1.80
2023-06-12T20:24:56.385Z,2.03
2023-06-12T20:27:25.932Z,1.77
2023-06-12T20:29:56.162Z,1.50
2023-06-12T20:32:24.274Z,2.00
2023-06-12T20:34:52.355Z,1.73
2023-06-12T20:37:20.758Z,2.30
2023-06-12T20:39:49.618Z,1.40
2023-06-12T20:42:17.577Z,1.73
2023-06-12T20:44:47.046Z,1.97
2023-06-12T20:47:15.201Z,2.20
2023-06-12T20:49:43.175Z,2.20
2023-06-12T20:52:11.561Z,2.10
2023-06-12T20:54:39.520Z,1.83
2023-06-12T20:57:09.308Z,1.93
2023-06-12T20:59:37.817Z,1.53
2023-06-12T21:02:07.752Z,2.00
2023-06-12T21:04:36.510Z,2.30
2023-06-12T21:07:04.938Z,1.63
2023-06-12T21:09:34.262Z,1.60
2023-06-12T21:12:03.118Z,2.10
2023-06-12T21:14:31.169Z,1.83
2023-06-12T21:17:00.044Z,1.60
2023-06-12T21:19:30.011Z,1.83
2023-06-12T21:21:58.105Z,1.67
2023-06-12T21:24:26.613Z,2.10
2023-06-12T21:26:55.879Z,1.80
2023-06-12T21:29:24.231Z,1.77
2023-06-12T21:31:54.956Z,1.63
2023-06-12T21:34:23.591Z,1.73
2023-06-12T21:36:53.718Z,1.83
2023-06-12T21:39:24.551Z,1.93
2023-06-12T21:41:52.815Z,1.90
2023-06-12T21:44:21.209Z,1.80
2023-06-12T21:46:49.288Z,1.77
2023-06-12T21:49:17.516Z,1.70
2023-06-12T21:51:46.111Z,1.60
2023-06-12T21:54:15.642Z,1.83
2023-06-12T21:56:44.295Z,1.70
2023-06-12T21:59:13.875Z,1.50
2023-06-12T22:01:42.065Z,1.67
2023-06-12T22:04:10.256Z,1.83
2023-06-12T22:06:39.753Z,1.40
2023-06-12T22:09:08.017Z,1.90
2023-06-12T22:11:37.624Z,1.37
2023-06-12T22:14:05.841Z,1.47
2023-06-12T22:16:34.098Z,1.57
2023-06-12T22:19:03.261Z,1.50
2023-06-12T22:21:32.383Z,1.60
2023-06-12T22:24:00.576Z,1.50
2023-06-12T22:26:29.746Z,1.40
2023-06-12T22:28:59.392Z,1.73
2023-06-12T22:31:27.680Z,1.40
2023-06-12T22:33:55.909Z,1.73
2023-06-12T22:36:24.122Z,1.33
2023-06-12T22:38:52.342Z,1.50
2023-06-12T22:41:20.525Z,1.40
2023-06-12T22:43:48.835Z,1.63
2023-06-12T22:46:18.589Z,1.33
2023-06-12T22:48:46.830Z,1.60
2023-06-12T22:51:15.097Z,1.13
2023-06-12T22:53:43.197Z,1.50
2023-06-12T22:56:11.486Z,1.50
2023-06-12T22:58:39.768Z,1.27
2023-06-12T23:01:07.942Z,1.40
2023-06-12T23:03:37.505Z,1.20
2023-06-12T23:06:06.563Z,1.23
2023-06-12T23:08:34.766Z,1.40
2023-06-12T23:11:02.854Z,1.10
2023-06-12T23:13:30.982Z,1.50
2023-06-12T23:15:59.235Z,1.10
2023-06-12T23:18:31.490Z,1.20
2023-06-12T23:21:03.134Z,1.20
2023-06-12T23:23:33.817Z,1.30
2023-06-12T23:26:03.761Z,1.10
2023-06-12T23:28:34.459Z,1.03
2023-06-12T23:31:03.841Z,1.30
2023-06-12T23:33:32.479Z,1.40
2023-06-12T23:36:02.261Z,1.60
2023-06-12T23:38:30.382Z,1.20
2023-06-12T23:40:58.519Z,1.17
2023-06-12T23:43:27.808Z,1.20
2023-06-12T23:45:55.946Z,1.43
2023-06-12T23:48:24.066Z,2.30
2023-06-12T23:50:52.358Z,1.20
2023-06-12T23:53:22.975Z,1.30
2023-06-12T23:55:51.234Z,1.57
2023-06-12T23:58:19.339Z,1.40
